createdAt,value
2019-04-11T00:01:33.974Z,100494.39
2019-04-11T00:03:00.994Z,100499.89
2019-04-11T00:04:40.131Z,100503.34
2019-04-11T00:06:19.808Z,100510.20
2019-04-11T00:07:59.799Z,100509.13
2019-04-11T00:09:39.361Z,100506.48
2019-04-11T00:11:18.009Z,100506.84
2019-04-11T00:12:59.099Z,100502.64
2019-04-11T00:14:40.229Z,100508.39
2019-04-11T00:16:21.406Z,100509.84
2019-04-11T00:18:06.068Z,100512.45
2019-04-11T00:19:43.959Z,100511.59
2019-04-11T00:21:24.511Z,100510.75
2019-04-11T00:23:04.271Z,100514.16
2019-04-11T00:24:43.014Z,100515.66
2019-04-11T00:26:22.428Z,100527.69
2019-04-11T00:28:01.576Z,100518.36
2019-04-11T00:29:40.719Z,100518.87
2019-04-11T00:31:20.902Z,100518.15
2019-04-11T00:33:02.143Z,100521.26
2019-04-11T00:34:40.152Z,100530.14
2019-04-11T00:36:20.013Z,100533.30
2019-04-11T00:38:01.290Z,100535.95
2019-04-11T00:39:40.285Z,100533.16
2019-04-11T00:41:18.309Z,100534.52
2019-04-11T00:42:57.222Z,100532.70
2019-04-11T00:44:38.942Z,100538.12
2019-04-11T00:46:20.381Z,100532.22
2019-04-11T00:47:59.707Z,100549.46
2019-04-11T00:49:42.875Z,100550.14
2019-04-11T00:51:25.699Z,100546.48
2019-04-11T00:53:05.577Z,100548.25
2019-04-11T00:54:45.100Z,100547.84
2019-04-11T00:56:24.405Z,100554.47
2019-04-11T00:58:03.705Z,100554.96
2019-04-11T00:59:43.224Z,100555.95
2019-04-11T01:01:23.974Z,100555.28
2019-04-11T01:03:04.959Z,100557.39
2019-04-11T01:04:43.802Z,100547.44
2019-04-11T01:06:24.044Z,100547.44
2019-04-11T01:08:03.262Z,100549.46
2019-04-11T01:09:42.284Z,100545.81
2019-04-11T01:11:25.948Z,100553.73
2019-04-11T01:13:05.133Z,100542.70
2019-04-11T01:14:45.556Z,100550.00
2019-04-11T01:16:40.946Z,100545.94
2019-04-11T01:18:25.634Z,100540.75
2019-04-11T01:20:07.640Z,100537.14
2019-04-11T01:21:46.719Z,100533.48
2019-04-11T01:23:27.071Z,100532.14
2019-04-11T01:25:13.237Z,100532.41
2019-04-11T01:26:54.425Z,100531.41
2019-04-11T01:28:35.072Z,100531.59
2019-04-11T01:30:16.863Z,100528.89
2019-04-11T01:31:58.086Z,100531.59
2019-04-11T01:33:38.649Z,100534.58
2019-04-11T01:35:23.531Z,100544.41
2019-04-11T01:37:07.234Z,100548.33
2019-04-11T01:38:52.895Z,100549.02
2019-04-11T01:40:32.401Z,100544.28
2019-04-11T01:42:13.248Z,100544.02
2019-04-11T01:44:00.966Z,100538.87
2019-04-11T01:45:38.413Z,100533.33
2019-04-11T01:47:22.540Z,100526.52
2019-04-11T01:49:06.011Z,100526.33
2019-04-11T01:50:45.250Z,100530.08
2019-04-11T01:52:24.547Z,100526.41
2019-04-11T01:54:03.682Z,100524.41
2019-04-11T01:55:42.916Z,100532.69
2019-04-11T01:57:25.948Z,100532.66
2019-04-11T01:59:07.008Z,100533.33
2019-04-11T02:00:50.926Z,100526.56
2019-04-11T02:02:42.947Z,100524.80
2019-04-11T02:04:30.400Z,100527.02
2019-04-11T02:06:12.245Z,100533.45
2019-04-11T02:07:53.311Z,100523.98
2019-04-11T02:09:35.835Z,100518.17
2019-04-11T02:11:19.702Z,100514.70
2019-04-11T02:13:01.735Z,100512.90
2019-04-11T02:14:43.905Z,100517.81
2019-04-11T02:16:25.133Z,100520.20
2019-04-11T02:18:05.368Z,100517.41
2019-04-11T02:19:48.062Z,100523.72
2019-04-11T02:21:27.470Z,100522.77
2019-04-11T02:23:13.210Z,100519.58
2019-04-11T02:25:00.608Z,100517.81
2019-04-11T02:26:41.402Z,100511.55
2019-04-11T02:28:25.222Z,100522.90
2019-04-11T02:30:05.512Z,100523.62
2019-04-11T02:31:48.080Z,100519.11
2019-04-11T02:33:27.834Z,100523.98
2019-04-11T02:35:11.144Z,100534.28
2019-04-11T02:36:51.340Z,100538.32
2019-04-11T02:38:32.441Z,100537.22
2019-04-11T02:40:15.349Z,100546.53
2019-04-11T02:41:56.946Z,100548.82
2019-04-11T02:43:38.455Z,100554.84
2019-04-11T02:45:31.087Z,100561.92
2019-04-11T02:47:18.517Z,100559.80
2019-04-11T02:48:54.492Z,100558.70
2019-04-11T02:50:37.162Z,100562.22
2019-04-11T02:52:19.453Z,100562.22
2019-04-11T02:54:04.631Z,100561.77
2019-04-11T02:55:46.624Z,100561.16
2019-04-11T02:57:26.464Z,100567.62
2019-04-11T02:59:06.819Z,100571.27
2019-04-11T03:00:45.920Z,100572.58
2019-04-11T03:02:26.671Z,100568.31
2019-04-11T03:04:07.410Z,100571.92
2019-04-11T03:05:47.059Z,100564.14
2019-04-11T03:07:27.170Z,100570.08
2019-04-11T03:09:07.098Z,100571.09
2019-04-11T03:10:49.121Z,100578.47
2019-04-11T03:12:31.944Z,100569.50
2019-04-11T03:14:14.157Z,100574.29
2019-04-11T03:16:11.378Z,100578.42
2019-04-11T03:17:42.798Z,100583.34
2019-04-11T03:19:37.582Z,100582.60
2019-04-11T03:21:13.065Z,100583.30
2019-04-11T03:22:57.005Z,100581.66
2019-04-11T03:24:35.286Z,100579.16
2019-04-11T03:26:16.934Z,100575.92
2019-04-11T03:27:58.997Z,100578.50
2019-04-11T03:29:43.183Z,100577.52
2019-04-11T03:32:05.290Z,100580.50
2019-04-11T03:35:51.794Z,100573.63
2019-04-11T03:38:42.631Z,100584.39
2019-04-11T03:40:27.082Z,100592.87
2019-04-11T03:42:07.353Z,100596.92
2019-04-11T03:43:45.809Z,100602.01
2019-04-11T03:45:38.137Z,100606.79
2019-04-11T03:47:18.083Z,100609.66
2019-04-11T03:49:00.555Z,100610.13
2019-04-11T03:50:34.889Z,100608.31
2019-04-11T03:52:17.265Z,100606.79
2019-04-11T03:53:56.902Z,100612.73
2019-04-11T03:55:37.158Z,100618.63
2019-04-11T03:57:29.932Z,100622.64
2019-04-11T04:01:10.554Z,100626.34
2019-04-11T04:02:55.274Z,100627.59
2019-04-11T04:04:39.300Z,100619.48
2019-04-11T04:06:19.225Z,100626.25
2019-04-11T04:08:04.537Z,100621.75
2019-04-11T04:09:45.973Z,100613.89
2019-04-11T04:11:30.492Z,100612.73
2019-04-11T04:13:16.167Z,100609.78
2019-04-11T04:14:53.711Z,100610.92
2019-04-11T04:16:40.890Z,100605.59
2019-04-11T04:18:16.580Z,100610.80
2019-04-11T04:20:05.118Z,100609.41
2019-04-11T04:21:46.851Z,100607.89
2019-04-11T04:23:27.338Z,100607.64
2019-04-11T04:25:06.353Z,100602.16
2019-04-11T04:26:44.563Z,100596.30
2019-04-11T04:28:23.705Z,100590.76
2019-04-11T04:30:05.100Z,100594.55
2019-04-11T04:31:43.050Z,100597.18
2019-04-11T04:33:23.058Z,100600.09
2019-04-11T04:35:01.774Z,100598.33
2019-04-11T04:36:42.229Z,100599.69
2019-04-11T04:38:21.159Z,100597.13
2019-04-11T04:40:20.953Z,100599.30
2019-04-11T04:41:49.527Z,100597.33
2019-04-11T04:43:25.098Z,100595.67
2019-04-11T04:45:04.811Z,100590.41
2019-04-11T04:46:58.679Z,100588.38
2019-04-11T04:48:26.709Z,100589.05
2019-04-11T04:50:06.471Z,100587.07
2019-04-11T04:51:47.741Z,100585.39
2019-04-11T04:53:28.257Z,100581.39
2019-04-11T04:55:06.347Z,100585.18
2019-04-11T04:56:46.945Z,100579.90
2019-04-11T05:01:06.814Z,100594.47
2019-04-11T05:02:52.391Z,100589.32
2019-04-11T05:04:31.789Z,100596.55
2019-04-11T05:06:21.563Z,100597.63
2019-04-11T05:08:11.060Z,100601.14
2019-04-11T05:09:50.318Z,100606.83
2019-04-11T05:11:33.862Z,100614.28
2019-04-11T05:13:13.629Z,100608.45
2019-04-11T05:14:59.179Z,100609.08
2019-04-11T05:16:41.699Z,100608.62
2019-04-11T05:18:25.931Z,100611.12
2019-04-11T05:20:12.067Z,100613.55
2019-04-11T05:21:59.793Z,100615.84
2019-04-11T05:24:20.928Z,100612.38
2019-04-11T05:28:06.886Z,100622.61
2019-04-11T05:29:45.903Z,100617.38
2019-04-11T05:31:24.861Z,100619.81
2019-04-11T05:33:04.042Z,100625.50
2019-04-11T05:34:41.529Z,100623.20
2019-04-11T05:36:20.671Z,100620.77
2019-04-11T05:37:59.922Z,100626.50
2019-04-11T05:39:46.685Z,100632.98
2019-04-11T05:41:33.591Z,100630.01
2019-04-11T05:43:17.281Z,100630.33
2019-04-11T06:17:09.222Z,100641.84
2019-04-11T06:19:04.145Z,100636.63
2019-04-11T06:20:51.844Z,100635.00
2019-04-11T06:22:31.872Z,100640.23
2019-04-11T06:24:16.310Z,100631.80
2019-04-11T06:25:57.608Z,100638.72
2019-04-11T06:27:42.209Z,100635.42
2019-04-11T06:29:25.922Z,100637.92
2019-04-11T06:31:20.158Z,100641.89
2019-04-11T06:33:00.373Z,100642.30
2019-04-11T06:34:53.088Z,100646.16
2019-04-11T06:36:39.078Z,100645.65
2019-04-11T06:38:28.866Z,100647.41
2019-04-11T06:40:18.041Z,100660.41
2019-04-11T06:42:01.206Z,100661.73
2019-04-11T06:43:49.984Z,100658.14
2019-04-11T06:45:46.224Z,100654.37
2019-04-11T06:47:32.794Z,100652.84
2019-04-11T06:49:22.852Z,100648.91
2019-04-11T06:51:06.689Z,100639.59
2019-04-11T06:52:46.108Z,100640.08
2019-04-11T06:56:23.548Z,100649.52
2019-04-11T06:58:12.936Z,100641.41
2019-04-11T06:59:56.686Z,100641.44
2019-04-11T07:01:38.412Z,100636.29
2019-04-11T07:03:23.159Z,100640.22
2019-04-11T07:06:51.693Z,100646.92
2019-04-11T07:08:32.119Z,100644.68
2019-04-11T07:10:11.856Z,100645.73
2019-04-11T07:11:53.186Z,100641.77
2019-04-11T07:13:35.055Z,100645.67
2019-04-11T07:15:21.092Z,100645.97
2019-04-11T07:17:18.904Z,100651.98
2019-04-11T07:18:58.996Z,100645.23
2019-04-11T07:20:47.235Z,100645.09
2019-04-11T07:22:44.031Z,100646.09
2019-04-11T07:24:47.468Z,100646.31
2019-04-11T07:26:33.088Z,100644.03
2019-04-11T07:28:16.344Z,100627.23
2019-04-11T07:29:57.074Z,100631.90
2019-04-11T07:31:50.411Z,100629.86
2019-04-11T07:33:56.348Z,100637.11
2019-04-11T07:35:59.253Z,100636.66
2019-04-11T07:37:36.787Z,100636.50
2019-04-11T07:39:18.159Z,100634.05
2019-04-11T07:41:19.446Z,100636.84
2019-04-11T07:43:08.178Z,100625.08
2019-04-11T07:44:47.266Z,100634.85
2019-04-11T07:46:27.451Z,100630.33
2019-04-11T07:48:17.198Z,100626.81
2019-04-11T07:50:00.042Z,100631.79
2019-04-11T07:51:40.740Z,100636.45
2019-04-11T07:53:21.878Z,100635.48
2019-04-11T07:55:02.608Z,100639.59
2019-04-11T07:56:44.571Z,100639.42
2019-04-11T07:58:25.236Z,100636.66
2019-04-11T08:00:05.908Z,100635.88
2019-04-11T08:01:59.309Z,100630.34
2019-04-11T08:03:49.173Z,100637.35
2019-04-11T08:05:50.120Z,100636.24
2019-04-11T08:07:42.902Z,100640.55
2019-04-11T08:09:33.478Z,100641.56
2019-04-11T08:11:21.829Z,100640.27
2019-04-11T08:13:14.899Z,100648.21
2019-04-11T08:14:55.205Z,100642.82
2019-04-11T08:16:37.557Z,100641.05
2019-04-11T08:18:36.969Z,100637.14
2019-04-11T08:20:23.977Z,100643.16
2019-04-11T08:22:03.167Z,100649.94
2019-04-11T08:23:43.817Z,100648.42
2019-04-11T08:25:45.240Z,100631.06
2019-04-11T08:27:49.809Z,100627.16
2019-04-11T08:29:20.294Z,100639.31
2019-04-11T08:31:15.080Z,100636.75
2019-04-11T08:32:58.151Z,100635.59
2019-04-11T08:34:56.047Z,100639.83
2019-04-11T08:36:48.888Z,100637.52
2019-04-11T08:38:29.905Z,100633.11
2019-04-11T08:40:13.454Z,100637.53
2019-04-11T08:41:54.816Z,100636.08
2019-04-11T08:43:37.409Z,100640.02
2019-04-11T08:45:25.986Z,100639.91
2019-04-11T08:47:07.768Z,100640.30
2019-04-11T08:48:49.469Z,100638.55
2019-04-11T08:50:31.670Z,100635.34
2019-04-11T08:52:11.785Z,100638.16
2019-04-11T08:54:10.557Z,100639.25
2019-04-11T08:55:56.213Z,100636.70
2019-04-11T08:57:33.926Z,100638.70
2019-04-11T08:59:39.707Z,100637.33
2019-04-11T09:01:24.837Z,100629.70
2019-04-11T09:03:23.871Z,100637.55
2019-04-11T09:05:15.196Z,100636.36
2019-04-11T09:06:51.147Z,100633.89
2019-04-11T09:08:35.729Z,100628.38
2019-04-11T09:10:35.935Z,100628.97
2019-04-11T09:12:15.165Z,100623.66
2019-04-11T09:14:13.786Z,100630.55
2019-04-11T09:16:21.509Z,100630.64
2019-04-11T09:18:06.069Z,100618.48
2019-04-11T09:19:49.410Z,100617.76
2019-04-11T09:21:48.727Z,100607.70
2019-04-11T09:23:31.662Z,100589.56
2019-04-11T09:25:33.437Z,100601.79
2019-04-11T09:27:32.945Z,100598.83
2019-04-11T09:29:13.651Z,100587.70
2019-04-11T09:31:15.193Z,100595.88
2019-04-11T09:33:20.984Z,100598.08
2019-04-11T09:35:01.870Z,100602.82
2019-04-11T09:36:45.083Z,100596.00
2019-04-11T09:38:32.700Z,100589.25
2019-04-11T09:40:31.961Z,100599.00
2019-04-11T09:42:23.097Z,100600.73
2019-04-11T09:44:15.182Z,100596.06
2019-04-11T09:46:02.432Z,100589.80
2019-04-11T09:47:48.213Z,100580.48
2019-04-11T09:49:39.707Z,100575.70
2019-04-11T09:51:19.064Z,100585.19
2019-04-11T09:53:01.476Z,100589.46
2019-04-11T09:55:15.013Z,100581.91
2019-04-11T09:57:13.130Z,100585.05
2019-04-11T09:59:08.651Z,100585.17
2019-04-11T10:01:10.433Z,100586.55
2019-04-11T10:02:58.689Z,100579.06
2019-04-11T10:04:42.032Z,100578.61
2019-04-11T10:06:23.839Z,100577.39
2019-04-11T10:08:22.386Z,100578.23
2019-04-11T10:10:28.960Z,100573.02
2019-04-11T10:12:29.510Z,100574.42
2019-04-11T10:14:11.769Z,100576.53
2019-04-11T10:15:53.760Z,100582.92
2019-04-11T10:17:43.594Z,100581.30
2019-04-11T10:19:34.498Z,100587.25
2019-04-11T10:21:17.252Z,100590.33
2019-04-11T10:23:12.843Z,100582.27
2019-04-11T10:25:12.817Z,100575.87
2019-04-11T10:26:56.626Z,100569.93
2019-04-11T10:28:37.498Z,100562.67
2019-04-11T10:30:33.716Z,100569.45
2019-04-11T10:32:21.301Z,100555.31
2019-04-11T10:34:18.160Z,100566.73
2019-04-11T10:36:07.413Z,100554.19
2019-04-11T10:37:49.754Z,100560.70
2019-04-11T10:39:39.626Z,100559.44
2019-04-11T10:41:28.459Z,100566.77
2019-04-11T10:43:08.353Z,100567.00
2019-04-11T10:45:02.725Z,100563.30
2019-04-11T10:46:49.634Z,100559.50
2019-04-11T10:48:38.743Z,100553.97
2019-04-11T10:50:11.199Z,100555.31
2019-04-11T10:51:51.032Z,100559.48
2019-04-11T10:53:29.494Z,100551.79
2019-04-11T10:55:25.994Z,100546.88
2019-04-11T10:57:11.924Z,100550.55
2019-04-11T10:58:51.799Z,100553.06
2019-04-11T11:00:31.952Z,100561.38
2019-04-11T11:02:23.065Z,100554.48
2019-04-11T11:04:07.335Z,100547.70
2019-04-11T11:05:57.600Z,100548.50
2019-04-11T11:07:36.973Z,100546.98
2019-04-11T11:09:22.049Z,100557.50
2019-04-11T11:11:08.182Z,100552.69
2019-04-11T11:13:04.238Z,100546.55
2019-04-11T11:15:03.491Z,100544.59
2019-04-11T11:16:45.449Z,100544.19
2019-04-11T11:19:13.951Z,100538.67
2019-04-11T11:20:48.122Z,100544.17
2019-04-11T11:22:34.482Z,100544.81
2019-04-11T11:24:31.579Z,100546.48
2019-04-11T11:26:22.577Z,100547.30
2019-04-11T11:28:03.216Z,100547.44
2019-04-11T11:29:42.959Z,100539.86
2019-04-11T11:31:40.758Z,100533.80
2019-04-11T11:33:22.198Z,100552.79
2019-04-11T11:35:05.396Z,100550.02
2019-04-11T11:36:56.666Z,100538.89
2019-04-11T11:38:37.734Z,100526.01
2019-04-11T11:40:28.008Z,100525.64
2019-04-11T11:42:28.085Z,100528.39
2019-04-11T11:44:11.754Z,100528.64
2019-04-11T11:45:56.602Z,100520.84
2019-04-11T11:47:48.950Z,100519.86
2019-04-11T11:49:44.792Z,100521.15
2019-04-11T11:51:17.362Z,100513.61
2019-04-11T11:53:16.424Z,100520.33
2019-04-11T11:54:58.456Z,100521.69
2019-04-11T11:56:42.466Z,100517.11
2019-04-11T11:58:44.184Z,100521.81
2019-04-11T12:00:25.075Z,100527.30
2019-04-11T12:02:19.798Z,100517.26
2019-04-11T12:04:14.802Z,100515.08
2019-04-11T12:05:56.681Z,100510.00
2019-04-11T12:07:43.102Z,100515.34
2019-04-11T12:09:44.704Z,100516.30
2019-04-11T12:11:26.886Z,100517.77
2019-04-11T12:13:26.364Z,100522.95
2019-04-11T12:15:27.258Z,100531.58
2019-04-11T12:17:12.870Z,100520.96
2019-04-11T12:19:30.117Z,100522.17
2019-04-11T12:21:16.332Z,100516.69
2019-04-11T12:22:58.990Z,100510.47
2019-04-11T12:24:58.708Z,100525.00
2019-04-11T12:26:47.024Z,100512.31
2019-04-11T12:28:47.881Z,100516.57
2019-04-11T12:30:32.811Z,100514.02
2019-04-11T12:32:14.789Z,100513.19
2019-04-11T12:34:12.407Z,100517.31
2019-04-11T12:35:54.768Z,100515.70
2019-04-11T15:23:47.251Z,100461.77
2019-04-11T15:25:31.136Z,100465.74
2019-04-11T15:27:10.767Z,100469.75
2019-04-11T15:28:54.573Z,100469.88
2019-04-11T15:30:39.726Z,100469.47
2019-04-11T15:32:18.776Z,100471.71
2019-04-11T15:34:15.894Z,100473.05
2019-04-11T15:35:58.676Z,100477.39
2019-04-11T15:37:59.065Z,100475.96
2019-04-11T15:39:55.774Z,100470.71
2019-04-11T15:41:33.895Z,100472.77
2019-04-11T15:43:22.862Z,100475.62
2019-04-11T15:45:08.888Z,100469.55
2019-04-11T15:46:47.900Z,100472.34
2019-04-11T15:48:43.389Z,100469.62
2019-04-11T15:53:06.563Z,100463.83
2019-04-11T15:55:05.412Z,100467.13
2019-04-11T15:57:04.104Z,100466.53
2019-04-11T15:58:52.495Z,100472.58
2019-04-11T16:00:44.891Z,100471.48
2019-04-11T16:02:56.774Z,100471.55
2019-04-11T16:04:38.096Z,100477.20
2019-04-11T16:06:39.073Z,100478.22
2019-04-11T16:08:43.674Z,100477.86
2019-04-11T16:14:41.608Z,100482.05
2019-04-11T16:16:27.735Z,100489.02
2019-04-11T16:18:34.480Z,100492.53
2019-04-11T16:20:18.851Z,100496.75
2019-04-11T16:22:03.216Z,100494.19
2019-04-11T16:24:02.997Z,100500.91
2019-04-11T16:25:45.767Z,100500.29
2019-04-11T16:27:36.616Z,100500.52
2019-04-11T16:29:19.164Z,100506.22
2019-04-11T16:30:58.654Z,100500.77
2019-04-11T16:32:38.725Z,100511.03
2019-04-11T16:34:34.531Z,100514.81
2019-04-11T16:36:18.297Z,100521.27
2019-04-11T16:38:12.156Z,100519.04
2019-04-11T16:40:10.326Z,100530.48
2019-04-11T16:41:57.757Z,100532.54
2019-04-11T16:43:39.066Z,100545.84
2019-04-11T16:45:25.750Z,100544.16
2019-04-11T16:47:18.636Z,100553.92
2019-04-11T16:48:57.015Z,100555.03
2019-04-11T16:50:36.421Z,100562.81
2019-04-11T16:52:14.172Z,100562.83
2019-04-11T16:53:52.115Z,100558.77
2019-04-11T16:55:30.313Z,100565.98
2019-04-11T16:57:08.135Z,100572.94
2019-04-11T16:58:49.326Z,100581.44
2019-04-11T17:00:25.462Z,100575.29
2019-04-11T17:02:03.359Z,100573.67
2019-04-11T17:03:40.877Z,100578.33
2019-04-11T17:05:19.321Z,100578.75
2019-04-11T17:06:58.720Z,100585.13
2019-04-11T17:08:38.106Z,100586.30
2019-04-11T17:10:16.770Z,100584.78
2019-04-11T17:11:56.598Z,100586.48
2019-04-11T17:13:35.661Z,100584.91
2019-04-11T17:15:13.568Z,100590.14
2019-04-11T17:16:51.259Z,100587.70
2019-04-11T17:18:28.846Z,100590.81
2019-04-11T17:20:10.299Z,100597.43
2019-04-11T17:21:48.924Z,100593.63
2019-04-11T17:23:27.931Z,100598.40
2019-04-11T17:25:06.581Z,100601.03
2019-04-11T17:26:44.371Z,100600.47
2019-04-11T17:28:24.171Z,100601.59
2019-04-11T17:30:01.769Z,100604.72
2019-04-11T17:31:40.432Z,100609.55
2019-04-11T17:33:18.727Z,100608.85
2019-04-11T17:34:56.710Z,100608.52
2019-04-11T17:36:35.123Z,100608.28
2019-04-11T17:38:13.041Z,100615.64
2019-04-11T17:39:50.916Z,100608.72
